Sea_plus87 — 9GGK — position and weather

sailwx.info

Track history (hours):
 
Tides and Currents Weather Stations Pressure Air Temp Water Temp Dewpoint Dewpoint Depression Visibility Wind Speed Wind Dir Waves Ship Positions

Sea_plus87

Last reported at 2018-Jun-21 17:58 UTC. Time now 2018-Jun-22 07:32 UTC.
Position N 05°18' W 000°09'.

Type: Fishing. MMSI: 627691000.

Date/timePositionNaut miles runAvg speedWind from/ knotsBaromVisibWave heightAir tempDewpointWater temp
2018-Jun-21 17:58N 05°18' W 000°09'510.6
2018-Jun-21 17:29N 05°17' W 000°14'6 0.1
2018-Jun-19 20:48N 05°22' W 000°14'2 7.9
2018-Jun-19 20:30N 05°23' W 000°12'4 7.8
2018-Jun-19 19:58N 05°24' W 000°08'4 7.7
2018-Jun-19 19:30N 05°25' W 000°05'4 7.6
2018-Jun-19 19:00N 05°26' W 000°01'4 7.5
2018-Jun-19 18:30N 05°27' E 000°03'4 7.5
2018-Jun-19 18:00N 05°28' E 000°06'3 5.7
2018-Jun-19 17:30N 05°29' E 000°09'0 0.2
2018-Jun-19 17:00N 05°29' E 000°09'611.3
2018-Jun-19 16:30N 05°25' E 000°05'611.2
2018-Jun-19 16:00N 05°21' E 000°01'5 9.0
2018-Jun-19 15:27N 05°17' W 000°01'1 0.4
2018-Jun-19 13:18N 05°16' W 000°02'0 0.8
2018-Jun-19 13:00N 05°16' W 000°02'1 1.4
2018-Jun-19 12:26N 05°17' W 000°02'5 7.8
2018-Jun-19 11:50N 05°19' E 000°02'2 7.8
2018-Jun-19 11:30N 05°20' E 000°05'5 7.8
2018-Jun-19 10:54N 05°21' E 000°09'3 7.8
2018-Jun-19 10:30N 05°22' E 000°12'4 7.9
2018-Jun-19 10:00N 05°23' E 000°16'4 7.8
2018-Jun-19 09:30N 05°25' E 000°20'4 7.8
2018-Jun-19 08:56N 05°26' E 000°24'20 4.9
2018-Jun-19 04:47N 05°36' E 000°42'1 4.7
2018-Jun-19 04:30N 05°36' E 000°43'2 4.6
2018-Jun-19 04:00N 05°37' E 000°45'19 0.5
2018-Jun-17 15:43N 05°30' E 000°28'210.5
2018-Jun-17 15:30N 05°30' E 000°25'4 8.2
2018-Jun-17 14:59N 05°31' E 000°21'2 4.2
2018-Jun-17 14:30N 05°32' E 000°20'3 5.9
2018-Jun-17 14:00N 05°30' E 000°17'510.6
2018-Jun-17 13:30N 05°26' E 000°14'1 1.1
2018-Jun-17 13:00N 05°26' E 000°14'3 6.3
2018-Jun-17 12:30N 05°28' E 000°12'5 9.4
2018-Jun-17 12:00N 05°28' E 000°08'510.1
2018-Jun-17 11:30N 05°27' E 000°03'510.1
2018-Jun-17 11:00N 05°26' W 000°02'510.0
2018-Jun-17 10:30N 05°25' W 000°07'5 9.7
2018-Jun-17 09:59N 05°25' W 000°12'510.0
2018-Jun-17 09:30N 05°26' W 000°17'5 9.8
2018-Jun-17 09:00N 05°26' W 000°22'2 3.2
2018-Jun-17 08:30N 05°25' W 000°24'2 2.8
2018-Jun-17 07:47N 05°25' W 000°22'3 9.4
2018-Jun-17 07:29N 05°24' W 000°24'1 0.5
2018-Jun-17 06:12N 05°24' W 000°24'0 0.0
2018-Jun-17 06:00N 05°24' W 000°24'0 0.0
2018-Jun-17 05:30N 05°24' W 000°24'0 0.0
2018-Jun-17 05:00N 05°24' W 000°24'0 0.0
2018-Jun-17 04:28N 05°24' W 000°24'0 0.0
2018-Jun-17 03:59N 05°24' W 000°24'0 0.0
2018-Jun-17 03:27N 05°24' W 000°24'0 0.0
2018-Jun-17 02:59N 05°24' W 000°24'0 0.0
2018-Jun-17 02:30N 05°24' W 000°24'0 0.0
2018-Jun-17 02:00N 05°24' W 000°24'0 0.0
2018-Jun-17 01:30N 05°24' W 000°24'0 0.0
2018-Jun-17 01:00N 05°24' W 000°24'0 0.0
2018-Jun-17 00:28N 05°24' W 000°24'0 0.0
2018-Jun-16 23:57N 05°24' W 000°24'0 0.0
2018-Jun-16 23:29N 05°24' W 000°24'0 0.0
2018-Jun-16 22:59N 05°24' W 000°24'0 0.0
2018-Jun-16 22:27N 05°24' W 000°24'0 0.0
2018-Jun-16 22:00N 05°24' W 000°24'4 7.8
2018-Jun-16 21:30N 05°22' W 000°21'7 8.2
2018-Jun-16 20:37N 05°20' W 000°14'2 9.0
2018-Jun-16 20:26N 05°21' W 000°12'4 9.1
2018-Jun-16 20:00N 05°20' W 000°08'4 8.1
2018-Jun-16 19:30N 05°21' W 000°04'5 9.5
2018-Jun-16 18:57N 05°21' E 000°01'4 9.5
2018-Jun-16 18:30N 05°23' E 000°05'5 9.4
2018-Jun-16 18:00N 05°24' E 000°10'3 6.4
2018-Jun-16 17:30N 05°23' E 000°13'0 0.9
2018-Jun-16 17:00N 05°23' E 000°13'0 0.9
2018-Jun-16 16:30N 05°22' E 000°13'1 2.4
2018-Jun-16 16:00N 05°24' E 000°13'4 8.4
2018-Jun-16 15:30N 05°28' E 000°14'3 5.9
2018-Jun-16 15:00N 05°30' E 000°16'4 7.2
2018-Jun-16 14:30N 05°27' E 000°18'2 4.3
2018-Jun-16 14:00N 05°26' E 000°20'7 1.5
2018-Jun-16 09:08N 05°31' E 000°26'0 1.1
2018-Jun-16 08:54N 05°31' E 000°25'4 9.9
2018-Jun-16 08:30N 05°30' E 000°22'3 6.1
2018-Jun-16 08:00N 05°30' E 000°19'3 6.0
2018-Jun-16 07:30N 05°29' E 000°16'1 1.4
2018-Jun-16 07:00N 05°30' E 000°15'4 7.2
2018-Jun-16 06:30N 05°33' E 000°14'4 8.3
2018-Jun-16 06:00N 05°36' E 000°11'4 8.5
2018-Jun-16 05:30N 05°38' E 000°07'0 0.2
2018-Jun-16 05:00N 05°38' E 000°07'0 0.0
2018-Jun-16 04:30N 05°38' E 000°07'0 0.0
2018-Jun-16 04:00N 05°38' E 000°07'0 0.0
2018-Jun-16 03:30N 05°38' E 000°07'0 0.0
2018-Jun-16 02:57N 05°38' E 000°07'0 0.0
2018-Jun-16 02:30N 05°38' E 000°07'0 0.0
2018-Jun-16 02:00N 05°38' E 000°07'0 0.0
2018-Jun-16 01:30N 05°38' E 000°07'0 0.0
2018-Jun-16 00:58N 05°38' E 000°07'0 0.0
2018-Jun-16 00:27N 05°38' E 000°07'0 0.0
2018-Jun-15 23:58N 05°38' E 000°07'0 0.0
2018-Jun-15 23:27N 05°38' E 000°07'0 0.0
2018-Jun-15 22:57N 05°38' E 000°07'0 0.0
2018-Jun-15 22:30N 05°38' E 000°07'0 0.0
2018-Jun-15 22:00N 05°38' E 000°07'20 3.8
2018-Jun-15 16:36N 05°27' E 000°24'1 8.2
2018-Jun-15 16:29N 05°26' E 000°25'3 0.6
2018-Jun-15 11:18N 05°28' E 000°28'3 7.9
2018-Jun-15 10:58N 05°26' E 000°26'4 8.4
2018-Jun-15 10:30N 05°27' E 000°23'3 5.2
2018-Jun-15 10:00N 05°28' E 000°20'5 9.3
2018-Jun-15 09:30N 05°25' E 000°16'5 9.4
2018-Jun-15 09:00N 05°22' E 000°13'5 9.6
2018-Jun-15 08:30N 05°18' E 000°09'6 9.5
2018-Jun-15 07:55N 05°15' E 000°05'3 0.6
2018-Jun-15 03:50N 05°16' E 000°03'3 9.7
2018-Jun-15 03:29N 05°19' E 000°05'5 9.7
2018-Jun-15 03:00N 05°22' E 000°09'5 9.6
2018-Jun-15 02:29N 05°25' E 000°12'1 2.9
2018-Jun-15 02:00N 05°26' E 000°13'4 8.8
2018-Jun-15 01:30N 05°23' E 000°16'4 8.2
2018-Jun-15 01:00N 05°20' E 000°19'15 2.1
2018-Jun-14 18:01N 05°34' E 000°21'4 7.6
2018-Jun-14 17:32N 05°31' E 000°21'0 2.3
2018-Jun-14 17:30N 05°31' E 000°22'1 2.2
2018-Jun-14 16:54N 05°31' E 000°23'2 6.2
2018-Jun-14 16:30N 05°30' E 000°21'5 9.8
2018-Jun-14 16:00N 05°27' E 000°17'3 6.0
2018-Jun-14 15:30N 05°25' E 000°15'5 9.8
2018-Jun-14 15:00N 05°22' E 000°11'2 3.7
2018-Jun-14 14:30N 05°20' E 000°10'8 9.5
2018-Jun-14 13:38N 05°14' E 000°04'32 4.4
2018-Jun-14 06:18N 05°22' W 000°28'1 1.9
2018-Jun-14 05:59N 05°22' W 000°27'2 3.0
2018-Jun-14 05:28N 05°23' W 000°26'2 3.0
2018-Jun-14 04:53N 05°21' W 000°26'0 0.0
2018-Jun-14 04:24N 05°21' W 000°26'0 0.0
2018-Jun-14 04:00N 05°21' W 000°26'0 0.0
2018-Jun-13 23:42N 05°21' W 000°26'0 0.0
2018-Jun-13 23:12N 05°21' W 000°26'0 0.0
2018-Jun-13 22:58N 05°21' W 000°26'2 2.6
2018-Jun-13 22:13N 05°19' W 000°26'26 4.0
2018-Jun-13 15:45N 05°14' W 000°01'210.0
2018-Jun-13 15:30N 05°16' W 000°01'3 6.3
2018-Jun-13 15:00N 05°19' W 000°00'1 1.9
2018-Jun-13 14:30N 05°20' W 000°01'0 0.8
2018-Jun-13 14:00N 05°21' W 000°01'0 0.8
2018-Jun-13 13:30N 05°21' W 000°00'4 8.8
2018-Jun-13 13:00N 05°21' E 000°04'5 9.2
2018-Jun-13 12:29N 05°24' E 000°08'5 9.9
2018-Jun-13 12:00N 05°26' E 000°12'5 9.8
2018-Jun-13 11:30N 05°28' E 000°17'8 9.9
2018-Jun-13 10:42N 05°30' E 000°24'4 3.8
2018-Jun-13 09:44N 05°33' E 000°27'4 7.8
2018-Jun-13 09:10N 05°36' E 000°23'2 9.7
2018-Jun-13 09:00N 05°37' E 000°22'5 9.9
2018-Jun-13 08:30N 05°40' E 000°18'5 9.7
2018-Jun-13 08:00N 05°43' E 000°14'3 5.9
2018-Jun-13 07:30N 05°42' E 000°12'3 6.5
2018-Jun-13 07:00N 05°41' E 000°08'0 0.5
2018-Jun-13 06:30N 05°41' E 000°08'1 1.0
2018-Jun-13 06:00N 05°41' E 000°08'4 7.9
2018-Jun-13 05:30N 05°39' E 000°12'5 9.8
2018-Jun-13 05:00N 05°39' E 000°17'5 9.7
2018-Jun-13 04:27N 05°38' E 000°22'  
Track history (hours):
 
Tides and Currents Weather Stations Pressure Air Temp Water Temp Dewpoint Dewpoint Depression Visibility Wind Speed Wind Dir Waves Ship Positions

Sea_plus87

Last reported at 2018-Jun-21 17:58 UTC. Time now 2018-Jun-22 07:32 UTC.
Position N 05°18' W 000°09'.

Type: Fishing. MMSI: 627691000.

Date/timePositionNaut miles runAvg speedWind from/ knotsBaromVisibWave heightAir tempDewpointWater temp
2018-Jun-21 17:58N 05°18' W 000°09'510.6
2018-Jun-21 17:29N 05°17' W 000°14'6 0.1
2018-Jun-19 20:48N 05°22' W 000°14'2 7.9
2018-Jun-19 20:30N 05°23' W 000°12'4 7.8
2018-Jun-19 19:58N 05°24' W 000°08'4 7.7
2018-Jun-19 19:30N 05°25' W 000°05'4 7.6
2018-Jun-19 19:00N 05°26' W 000°01'4 7.5
2018-Jun-19 18:30N 05°27' E 000°03'4 7.5
2018-Jun-19 18:00N 05°28' E 000°06'3 5.7
2018-Jun-19 17:30N 05°29' E 000°09'0 0.2
2018-Jun-19 17:00N 05°29' E 000°09'611.3
2018-Jun-19 16:30N 05°25' E 000°05'611.2
2018-Jun-19 16:00N 05°21' E 000°01'5 9.0
2018-Jun-19 15:27N 05°17' W 000°01'1 0.4
2018-Jun-19 13:18N 05°16' W 000°02'0 0.8
2018-Jun-19 13:00N 05°16' W 000°02'1 1.4
2018-Jun-19 12:26N 05°17' W 000°02'5 7.8
2018-Jun-19 11:50N 05°19' E 000°02'2 7.8
2018-Jun-19 11:30N 05°20' E 000°05'5 7.8
2018-Jun-19 10:54N 05°21' E 000°09'3 7.8
2018-Jun-19 10:30N 05°22' E 000°12'4 7.9
2018-Jun-19 10:00N 05°23' E 000°16'4 7.8
2018-Jun-19 09:30N 05°25' E 000°20'4 7.8
2018-Jun-19 08:56N 05°26' E 000°24'20 4.9
2018-Jun-19 04:47N 05°36' E 000°42'1 4.7
2018-Jun-19 04:30N 05°36' E 000°43'2 4.6
2018-Jun-19 04:00N 05°37' E 000°45'19 0.5
2018-Jun-17 15:43N 05°30' E 000°28'210.5
2018-Jun-17 15:30N 05°30' E 000°25'4 8.2
2018-Jun-17 14:59N 05°31' E 000°21'2 4.2
2018-Jun-17 14:30N 05°32' E 000°20'3 5.9
2018-Jun-17 14:00N 05°30' E 000°17'510.6
2018-Jun-17 13:30N 05°26' E 000°14'1 1.1
2018-Jun-17 13:00N 05°26' E 000°14'3 6.3
2018-Jun-17 12:30N 05°28' E 000°12'5 9.4
2018-Jun-17 12:00N 05°28' E 000°08'510.1
2018-Jun-17 11:30N 05°27' E 000°03'510.1
2018-Jun-17 11:00N 05°26' W 000°02'510.0
2018-Jun-17 10:30N 05°25' W 000°07'5 9.7
2018-Jun-17 09:59N 05°25' W 000°12'510.0
2018-Jun-17 09:30N 05°26' W 000°17'5 9.8
2018-Jun-17 09:00N 05°26' W 000°22'2 3.2
2018-Jun-17 08:30N 05°25' W 000°24'2 2.8
2018-Jun-17 07:47N 05°25' W 000°22'3 9.4
2018-Jun-17 07:29N 05°24' W 000°24'1 0.5
2018-Jun-17 06:12N 05°24' W 000°24'0 0.0
2018-Jun-17 06:00N 05°24' W 000°24'0 0.0
2018-Jun-17 05:30N 05°24' W 000°24'0 0.0
2018-Jun-17 05:00N 05°24' W 000°24'0 0.0
2018-Jun-17 04:28N 05°24' W 000°24'0 0.0
2018-Jun-17 03:59N 05°24' W 000°24'0 0.0
2018-Jun-17 03:27N 05°24' W 000°24'0 0.0
2018-Jun-17 02:59N 05°24' W 000°24'0 0.0
2018-Jun-17 02:30N 05°24' W 000°24'0 0.0
2018-Jun-17 02:00N 05°24' W 000°24'0 0.0
2018-Jun-17 01:30N 05°24' W 000°24'0 0.0
2018-Jun-17 01:00N 05°24' W 000°24'0 0.0
2018-Jun-17 00:28N 05°24' W 000°24'0 0.0
2018-Jun-16 23:57N 05°24' W 000°24'0 0.0
2018-Jun-16 23:29N 05°24' W 000°24'0 0.0
2018-Jun-16 22:59N 05°24' W 000°24'0 0.0
2018-Jun-16 22:27N 05°24' W 000°24'0 0.0
2018-Jun-16 22:00N 05°24' W 000°24'4 7.8
2018-Jun-16 21:30N 05°22' W 000°21'7 8.2
2018-Jun-16 20:37N 05°20' W 000°14'2 9.0
2018-Jun-16 20:26N 05°21' W 000°12'4 9.1
2018-Jun-16 20:00N 05°20' W 000°08'4 8.1
2018-Jun-16 19:30N 05°21' W 000°04'5 9.5
2018-Jun-16 18:57N 05°21' E 000°01'4 9.5
2018-Jun-16 18:30N 05°23' E 000°05'5 9.4
2018-Jun-16 18:00N 05°24' E 000°10'3 6.4
2018-Jun-16 17:30N 05°23' E 000°13'0 0.9
2018-Jun-16 17:00N 05°23' E 000°13'0 0.9
2018-Jun-16 16:30N 05°22' E 000°13'1 2.4
2018-Jun-16 16:00N 05°24' E 000°13'4 8.4
2018-Jun-16 15:30N 05°28' E 000°14'3 5.9
2018-Jun-16 15:00N 05°30' E 000°16'4 7.2
2018-Jun-16 14:30N 05°27' E 000°18'2 4.3
2018-Jun-16 14:00N 05°26' E 000°20'7 1.5
2018-Jun-16 09:08N 05°31' E 000°26'0 1.1
2018-Jun-16 08:54N 05°31' E 000°25'4 9.9
2018-Jun-16 08:30N 05°30' E 000°22'3 6.1
2018-Jun-16 08:00N 05°30' E 000°19'3 6.0
2018-Jun-16 07:30N 05°29' E 000°16'1 1.4
2018-Jun-16 07:00N 05°30' E 000°15'4 7.2
2018-Jun-16 06:30N 05°33' E 000°14'4 8.3
2018-Jun-16 06:00N 05°36' E 000°11'4 8.5
2018-Jun-16 05:30N 05°38' E 000°07'0 0.2
2018-Jun-16 05:00N 05°38' E 000°07'0 0.0
2018-Jun-16 04:30N 05°38' E 000°07'0 0.0
2018-Jun-16 04:00N 05°38' E 000°07'0 0.0
2018-Jun-16 03:30N 05°38' E 000°07'0 0.0
2018-Jun-16 02:57N 05°38' E 000°07'0 0.0
2018-Jun-16 02:30N 05°38' E 000°07'0 0.0
2018-Jun-16 02:00N 05°38' E 000°07'0 0.0
2018-Jun-16 01:30N 05°38' E 000°07'0 0.0
2018-Jun-16 00:58N 05°38' E 000°07'0 0.0
2018-Jun-16 00:27N 05°38' E 000°07'0 0.0
2018-Jun-15 23:58N 05°38' E 000°07'0 0.0
2018-Jun-15 23:27N 05°38' E 000°07'0 0.0
2018-Jun-15 22:57N 05°38' E 000°07'0 0.0
2018-Jun-15 22:30N 05°38' E 000°07'0 0.0
2018-Jun-15 22:00N 05°38' E 000°07'20 3.8
2018-Jun-15 16:36N 05°27' E 000°24'1 8.2
2018-Jun-15 16:29N 05°26' E 000°25'3 0.6
2018-Jun-15 11:18N 05°28' E 000°28'3 7.9
2018-Jun-15 10:58N 05°26' E 000°26'4 8.4
2018-Jun-15 10:30N 05°27' E 000°23'3 5.2
2018-Jun-15 10:00N 05°28' E 000°20'5 9.3
2018-Jun-15 09:30N 05°25' E 000°16'5 9.4
2018-Jun-15 09:00N 05°22' E 000°13'5 9.6
2018-Jun-15 08:30N 05°18' E 000°09'6 9.5
2018-Jun-15 07:55N 05°15' E 000°05'3 0.6
2018-Jun-15 03:50N 05°16' E 000°03'3 9.7
2018-Jun-15 03:29N 05°19' E 000°05'5 9.7
2018-Jun-15 03:00N 05°22' E 000°09'5 9.6
2018-Jun-15 02:29N 05°25' E 000°12'1 2.9
2018-Jun-15 02:00N 05°26' E 000°13'4 8.8
2018-Jun-15 01:30N 05°23' E 000°16'4 8.2
2018-Jun-15 01:00N 05°20' E 000°19'15 2.1
2018-Jun-14 18:01N 05°34' E 000°21'4 7.6
2018-Jun-14 17:32N 05°31' E 000°21'0 2.3
2018-Jun-14 17:30N 05°31' E 000°22'1 2.2
2018-Jun-14 16:54N 05°31' E 000°23'2 6.2
2018-Jun-14 16:30N 05°30' E 000°21'5 9.8
2018-Jun-14 16:00N 05°27' E 000°17'3 6.0
2018-Jun-14 15:30N 05°25' E 000°15'5 9.8
2018-Jun-14 15:00N 05°22' E 000°11'2 3.7
2018-Jun-14 14:30N 05°20' E 000°10'8 9.5
2018-Jun-14 13:38N 05°14' E 000°04'32 4.4
2018-Jun-14 06:18N 05°22' W 000°28'1 1.9
2018-Jun-14 05:59N 05°22' W 000°27'2 3.0
2018-Jun-14 05:28N 05°23' W 000°26'2 3.0
2018-Jun-14 04:53N 05°21' W 000°26'0 0.0
2018-Jun-14 04:24N 05°21' W 000°26'0 0.0
2018-Jun-14 04:00N 05°21' W 000°26'0 0.0
2018-Jun-13 23:42N 05°21' W 000°26'0 0.0
2018-Jun-13 23:12N 05°21' W 000°26'0 0.0
2018-Jun-13 22:58N 05°21' W 000°26'2 2.6
2018-Jun-13 22:13N 05°19' W 000°26'26 4.0
2018-Jun-13 15:45N 05°14' W 000°01'210.0
2018-Jun-13 15:30N 05°16' W 000°01'3 6.3
2018-Jun-13 15:00N 05°19' W 000°00'1 1.9
2018-Jun-13 14:30N 05°20' W 000°01'0 0.8
2018-Jun-13 14:00N 05°21' W 000°01'0 0.8
2018-Jun-13 13:30N 05°21' W 000°00'4 8.8
2018-Jun-13 13:00N 05°21' E 000°04'5 9.2
2018-Jun-13 12:29N 05°24' E 000°08'5 9.9
2018-Jun-13 12:00N 05°26' E 000°12'5 9.8
2018-Jun-13 11:30N 05°28' E 000°17'8 9.9
2018-Jun-13 10:42N 05°30' E 000°24'4 3.8
2018-Jun-13 09:44N 05°33' E 000°27'4 7.8
2018-Jun-13 09:10N 05°36' E 000°23'2 9.7
2018-Jun-13 09:00N 05°37' E 000°22'5 9.9
2018-Jun-13 08:30N 05°40' E 000°18'5 9.7
2018-Jun-13 08:00N 05°43' E 000°14'3 5.9
2018-Jun-13 07:30N 05°42' E 000°12'3 6.5
2018-Jun-13 07:00N 05°41' E 000°08'0 0.5
2018-Jun-13 06:30N 05°41' E 000°08'1 1.0
2018-Jun-13 06:00N 05°41' E 000°08'4 7.9
2018-Jun-13 05:30N 05°39' E 000°12'5 9.8
2018-Jun-13 05:00N 05°39' E 000°17'5 9.7
2018-Jun-13 04:27N 05°38' E 000°22'  

Dump ship's entire track history